Time;durP1;ratioP1;P1;durP2;ratioP2;P2;SDS_P1;SDS_P2;PMS_P1;PMS_P2;Temp;Humidity;BMP_temperature;BMP_pressure;BME280_temperature;BME280_humidity;BME280_pressure;Samples;Min_cycle;Max_cycle;Signal;HPM_P1;HPM_P2
2021/12/29 00:01:00;;;;;;;3.67;1.40;;;12.90;64.30;;;;;;5077734;28;20803;-50
2021/12/29 00:03:26;;;;;;;4.40;1.10;;;12.90;64.30;;;;;;5085297;28;20199;-50
2021/12/29 00:05:52;;;;;;;3.27;1.37;;;12.90;64.20;;;;;;5087602;28;20195;-49
2021/12/29 00:08:18;;;;;;;3.30;1.30;;;12.80;64.50;;;;;;5092700;28;20433;-48
2021/12/29 00:10:43;;;;;;;4.33;1.53;;;12.70;64.60;;;;;;5088385;28;20227;-49
2021/12/29 00:13:09;;;;;;;5.17;2.00;;;12.40;65.10;;;;;;5084494;28;20636;-48
2021/12/29 00:15:36;;;;;;;3.00;1.30;;;12.60;65.50;;;;;;5081635;28;20272;-50
2021/12/29 00:18:03;;;;;;;2.40;1.50;;;12.60;65.20;;;;;;5091620;28;20191;-51
2021/12/29 00:20:31;;;;;;;4.50;1.63;;;12.80;65.00;;;;;;5090539;28;20425;-50
2021/12/29 00:23:02;;;;;;;1.30;0.73;;;12.80;64.70;;;;;;5092644;28;20440;-50
2021/12/29 00:25:28;;;;;;;3.00;1.70;;;12.50;64.40;;;;;;5075667;28;20434;-50
2021/12/29 00:27:55;;;;;;;4.10;1.13;;;12.40;65.10;;;;;;5085946;28;20438;-50
2021/12/29 00:30:21;;;;;;;3.83;1.20;;;12.50;65.40;;;;;;5088300;28;20499;-49
2021/12/29 00:32:47;;;;;;;3.90;1.33;;;12.50;65.50;;;;;;5083616;28;20432;-49
2021/12/29 00:35:14;;;;;;;2.83;1.50;;;12.40;65.80;;;;;;5089479;28;20487;-51
2021/12/29 00:37:41;;;;;;;4.30;1.27;;;12.70;65.70;;;;;;5087723;28;20446;-48
2021/12/29 00:40:08;;;;;;;2.73;1.10;;;12.60;65.10;;;;;;5084813;28;20433;-50
2021/12/29 00:42:34;;;;;;;3.07;1.00;;;12.50;65.40;;;;;;5089759;28;20508;-51
2021/12/29 00:44:59;;;;;;;5.50;1.30;;;12.60;66.40;;;;;;5083469;28;20517;-53
2021/12/29 00:47:29;;;;;;;4.33;1.07;;;12.60;65.10;;;;;;5084736;28;20643;-48
2021/12/29 00:49:55;;;;;;;4.40;0.90;;;12.70;64.70;;;;;;5084112;28;20694;-52
2021/12/29 00:52:21;;;;;;;1.27;0.70;;;12.80;64.10;;;;;;5083594;28;20437;-49
2021/12/29 00:54:46;;;;;;;5.03;1.10;;;12.70;64.20;;;;;;5091068;28;20352;-52
2021/12/29 00:57:12;;;;;;;2.23;1.03;;;12.60;64.60;;;;;;5088611;28;20239;-48
2021/12/29 00:59:38;;;;;;;0.87;0.80;;;12.70;64.80;;;;;;5084556;28;20203;-52
2021/12/29 01:02:04;;;;;;;1.93;1.30;;;12.50;64.60;;;;;;5085327;28;20211;-52
2021/12/29 01:04:30;;;;;;;2.47;1.10;;;12.60;64.80;;;;;;5083088;28;20191;-51
2021/12/29 01:06:55;;;;;;;1.80;1.00;;;12.80;63.80;;;;;;5090437;28;20921;-48
2021/12/29 01:09:21;;;;;;;1.97;0.97;;;12.90;64.10;;;;;;5098965;28;20195;-50
2021/12/29 01:11:47;;;;;;;4.10;1.00;;;13.10;63.70;;;;;;5092328;28;20222;-51
2021/12/29 01:14:12;;;;;;;0.97;0.80;;;13.00;63.80;;;;;;5085838;28;20880;-49
2021/12/29 01:16:39;;;;;;;2.93;0.90;;;13.00;64.20;;;;;;5084532;28;20195;-48
2021/12/29 01:19:20;;;;;;;2.63;1.27;;;13.00;64.00;;;;;;5082902;28;20238;-48
2021/12/29 01:21:49;;;;;;;2.07;1.13;;;12.80;64.70;;;;;;5084243;28;20472;-49
2021/12/29 01:24:15;;;;;;;3.63;0.83;;;12.90;64.80;;;;;;5090245;28;20421;-48
2021/12/29 01:26:43;;;;;;;2.30;0.90;;;12.90;64.90;;;;;;5088944;28;20974;-48
2021/12/29 01:29:12;;;;;;;4.07;0.93;;;12.90;65.20;;;;;;5080508;28;20474;-49
2021/12/29 01:31:39;;;;;;;2.50;0.97;;;13.00;64.60;;;;;;5082224;28;20486;-48
2021/12/29 01:34:05;;;;;;;2.63;0.93;;;12.80;65.00;;;;;;5088196;28;20470;-49
2021/12/29 01:36:35;;;;;;;1.17;0.80;;;12.60;65.90;;;;;;5089544;28;20952;-52
2021/12/29 01:39:03;;;;;;;1.63;0.70;;;12.60;66.50;;;;;;5087336;28;20429;-49
2021/12/29 01:41:28;;;;;;;1.63;0.60;;;12.80;66.00;;;;;;5087073;28;20486;-49
2021/12/29 01:43:54;;;;;;;3.50;0.90;;;12.80;65.70;;;;;;5090348;28;20524;-49
2021/12/29 01:46:20;;;;;;;0.80;0.80;;;12.70;65.60;;;;;;5083512;28;20198;-49
2021/12/29 01:48:46;;;;;;;2.43;0.90;;;12.60;65.60;;;;;;5083778;28;20195;-51
2021/12/29 01:51:13;;;;;;;2.50;0.70;;;12.60;65.90;;;;;;5087400;28;20481;-49
2021/12/29 01:53:47;;;;;;;1.43;0.80;;;12.60;65.90;;;;;;5075431;28;20199;-50
2021/12/29 01:56:13;;;;;;;2.20;0.83;;;12.60;66.10;;;;;;5084337;28;20439;-49
2021/12/29 01:58:39;;;;;;;1.03;0.70;;;12.50;65.80;;;;;;5089341;28;20441;-48
2021/12/29 02:01:05;;;;;;;1.37;0.70;;;12.70;66.20;;;;;;5090604;28;20429;-49
2021/12/29 02:03:31;;;;;;;4.43;1.37;;;12.70;65.60;;;;;;5090083;28;20440;-51
2021/12/29 02:05:56;;;;;;;0.53;0.53;;;12.70;66.00;;;;;;5083489;28;20278;-51
2021/12/29 02:08:23;;;;;;;1.53;0.87;;;12.80;65.40;;;;;;5088198;28;20199;-49
2021/12/29 02:10:51;;;;;;;1.80;1.00;;;12.70;65.60;;;;;;5088515;28;20222;-52
2021/12/29 02:13:17;;;;;;;1.60;0.60;;;12.60;66.10;;;;;;5083171;28;20905;-49
2021/12/29 02:15:43;;;;;;;2.40;0.73;;;12.80;65.80;;;;;;5088448;28;20433;-49
2021/12/29 02:18:14;;;;;;;4.40;0.90;;;12.90;65.50;;;;;;5084217;28;21842;-48
2021/12/29 02:20:48;;;;;;;1.60;0.60;;;13.10;64.90;;;;;;5073960;28;20434;-48
2021/12/29 02:23:21;;;;;;;2.80;0.63;;;13.10;64.90;;;;;;5083080;28;20510;-51
2021/12/29 02:25:52;;;;;;;0.87;0.80;;;13.30;64.30;;;;;;5087064;28;20445;-51
2021/12/29 02:28:42;;;;;;;2.40;0.67;;;13.20;65.10;;;;;;5087077;28;20547;-52
2021/12/29 02:31:07;;;;;;;1.20;0.80;;;13.10;64.40;;;;;;5087135;28;20481;-50
2021/12/29 02:33:34;;;;;;;1.57;0.80;;;13.10;64.90;;;;;;5082775;28;20434;-52
2021/12/29 02:36:01;;;;;;;0.97;0.87;;;13.10;65.30;;;;;;5077711;28;20191;-49
2021/12/29 02:38:33;;;;;;;0.70;0.60;;;13.00;64.80;;;;;;5084820;28;20517;-52
2021/12/29 02:41:07;;;;;;;1.00;0.80;;;13.20;64.90;;;;;;5083360;28;20445;-48
2021/12/29 02:43:37;;;;;;;1.13;0.87;;;13.30;64.30;;;;;;5081417;28;20444;-52
2021/12/29 02:46:11;;;;;;;4.27;0.77;;;13.60;63.50;;;;;;5089737;28;20433;-52
2021/12/29 02:48:39;;;;;;;1.00;0.67;;;13.40;62.90;;;;;;5086127;28;20433;-51
2021/12/29 02:51:07;;;;;;;1.23;0.70;;;13.70;62.70;;;;;;5085356;28;20976;-51
2021/12/29 02:53:34;;;;;;;1.47;0.80;;;13.40;61.90;;;;;;5086310;28;20866;-52
2021/12/29 02:55:59;;;;;;;0.70;0.70;;;13.30;62.20;;;;;;5101576;28;20441;-49
2021/12/29 02:58:26;;;;;;;1.40;0.80;;;13.00;62.10;;;;;;5085276;28;20428;-49
2021/12/29 03:00:53;;;;;;;1.37;0.80;;;13.10;62.50;;;;;;5087967;28;20191;-49
2021/12/29 03:03:22;;;;;;;1.00;0.63;;;13.20;62.00;;;;;;5088598;28;20510;-49
2021/12/29 03:05:49;;;;;;;1.80;0.60;;;13.00;61.50;;;;;;5078762;28;20437;-49
2021/12/29 03:08:16;;;;;;;1.83;0.80;;;12.80;61.90;;;;;;5081867;28;20518;-50
2021/12/29 03:10:42;;;;;;;0.70;0.70;;;12.70;62.80;;;;;;5079445;28;21277;-48
2021/12/29 03:13:08;;;;;;;0.80;0.70;;;12.80;62.70;;;;;;5079657;28;20449;-49
2021/12/29 03:15:35;;;;;;;0.87;0.80;;;12.80;62.60;;;;;;5087862;28;20470;-49
2021/12/29 03:18:01;;;;;;;1.80;0.80;;;12.80;62.30;;;;;;5086507;28;20278;-49
2021/12/29 03:20:27;;;;;;;1.17;0.60;;;12.70;62.60;;;;;;5081297;28;20433;-52
2021/12/29 03:22:54;;;;;;;0.80;0.70;;;12.70;62.70;;;;;;5082900;28;20475;-52
2021/12/29 03:25:21;;;;;;;0.97;0.70;;;12.50;62.70;;;;;;5085928;28;20199;-52
2021/12/29 03:27:47;;;;;;;1.17;0.70;;;12.70;63.50;;;;;;5087850;28;20461;-49
2021/12/29 03:30:12;;;;;;;2.40;1.17;;;12.70;63.00;;;;;;5084519;28;20469;-48
2021/12/29 03:32:49;;;;;;;1.17;0.87;;;12.80;62.90;;;;;;5081833;28;20195;-50
2021/12/29 03:35:14;;;;;;;1.83;0.60;;;12.80;62.50;;;;;;5082423;28;20203;-49
2021/12/29 03:37:40;;;;;;;2.00;0.93;;;13.10;62.00;;;;;;5086223;28;20490;-49
2021/12/29 03:40:06;;;;;;;2.07;1.10;;;13.20;62.20;;;;;;5080740;28;20211;-50
2021/12/29 03:42:32;;;;;;;1.17;0.80;;;13.10;61.50;;;;;;5079563;28;20219;-53
2021/12/29 03:44:58;;;;;;;1.80;0.87;;;13.20;61.90;;;;;;5084157;28;20467;-49
2021/12/29 03:47:24;;;;;;;1.23;0.70;;;13.30;61.50;;;;;;5082630;28;20429;-49
2021/12/29 03:49:50;;;;;;;0.87;0.67;;;13.20;61.90;;;;;;5083771;28;20429;-52
2021/12/29 03:52:15;;;;;;;1.43;1.00;;;13.40;61.60;;;;;;5086284;28;20238;-51
2021/12/29 03:54:41;;;;;;;1.17;0.80;;;13.40;61.40;;;;;;5080786;28;20543;-49
2021/12/29 03:57:07;;;;;;;0.70;0.70;;;13.50;61.30;;;;;;5083525;28;20187;-50
2021/12/29 03:59:33;;;;;;;0.80;0.73;;;13.60;61.10;;;;;;5082646;28;20352;-52
2021/12/29 04:02:00;;;;;;;2.30;0.70;;;13.60;60.60;;;;;;5087323;28;20195;-50
2021/12/29 04:04:25;;;;;;;0.93;0.80;;;13.40;61.10;;;;;;5088403;28;20702;-49
2021/12/29 04:06:51;;;;;;;1.10;0.60;;;13.30;61.50;;;;;;5083944;28;20542;-51
2021/12/29 04:09:18;;;;;;;2.43;0.70;;;13.30;62.00;;;;;;5088024;28;20187;-49
2021/12/29 04:11:49;;;;;;;1.20;0.80;;;13.30;61.60;;;;;;5085280;28;20670;-49
2021/12/29 04:14:20;;;;;;;1.90;0.97;;;13.40;61.60;;;;;;5084535;28;20453;-48
2021/12/29 04:16:47;;;;;;;2.07;0.80;;;13.30;61.80;;;;;;5079919;28;20800;-49
2021/12/29 04:19:15;;;;;;;1.27;0.80;;;13.30;61.80;;;;;;5083219;28;20471;-50
2021/12/29 04:21:43;;;;;;;0.60;0.60;;;13.40;61.90;;;;;;5072957;28;20446;-50
2021/12/29 04:24:09;;;;;;;0.80;0.50;;;13.50;61.40;;;;;;5084914;28;20441;-50
2021/12/29 04:26:37;;;;;;;0.70;0.70;;;13.20;61.40;;;;;;5081324;28;20464;-48
2021/12/29 04:29:09;;;;;;;0.70;0.60;;;13.20;62.40;;;;;;5084833;28;21231;-52
2021/12/29 04:31:35;;;;;;;1.47;0.70;;;13.20;62.00;;;;;;5076935;28;20477;-50
2021/12/29 04:34:01;;;;;;;0.70;0.60;;;13.50;61.80;;;;;;5085671;28;20425;-51
2021/12/29 04:36:26;;;;;;;1.10;0.60;;;13.60;61.30;;;;;;5086102;28;20445;-49
2021/12/29 04:38:53;;;;;;;1.23;0.60;;;13.60;61.60;;;;;;5083441;28;20459;-50
2021/12/29 04:41:20;;;;;;;0.60;0.60;;;13.60;62.20;;;;;;5089987;28;20198;-49
2021/12/29 04:43:46;;;;;;;1.33;0.67;;;13.70;62.20;;;;;;5088334;28;20430;-51
2021/12/29 04:46:16;;;;;;;0.60;0.50;;;13.60;62.10;;;;;;5086888;28;20429;-49
2021/12/29 04:48:50;;;;;;;0.83;0.60;;;13.70;62.80;;;;;;5090846;28;20190;-48
2021/12/29 04:51:24;;;;;;;0.60;0.53;;;13.60;62.80;;;;;;5086836;27;20480;-50
2021/12/29 04:53:49;;;;;;;0.50;0.47;;;13.50;63.80;;;;;;5085287;28;20466;-48
2021/12/29 04:56:15;;;;;;;2.33;0.67;;;13.20;65.20;;;;;;5084437;28;20437;-49
2021/12/29 04:58:42;;;;;;;1.53;0.67;;;13.20;65.90;;;;;;5093356;28;20219;-50
2021/12/29 05:01:08;;;;;;;1.10;1.10;;;13.10;66.60;;;;;;5081476;28;20441;-49
2021/12/29 05:03:37;;;;;;;0.90;0.60;;;13.10;67.90;;;;;;5083178;28;20522;-53
2021/12/29 05:08:31;;;;;;;2.30;0.70;;;12.80;70.30;;;;;;5082521;28;20482;-52
2021/12/29 05:11:03;;;;;;;2.30;2.20;;;12.80;71.10;;;;;;5090318;28;20963;-52
2021/12/29 05:13:31;;;;;;;0.60;0.60;;;12.50;72.00;;;;;;5088850;28;20222;-53
2021/12/29 05:15:57;;;;;;;1.53;0.50;;;12.50;72.80;;;;;;5085633;28;20858;-53
2021/12/29 05:18:27;;;;;;;0.50;0.50;;;12.80;72.30;;;;;;5078690;28;20466;-52
2021/12/29 05:20:54;;;;;;;1.00;0.60;;;12.90;71.50;;;;;;5085179;28;20463;-52
2021/12/29 05:23:20;;;;;;;1.27;0.50;;;12.80;70.70;;;;;;5082934;28;20825;-53
2021/12/29 05:25:47;;;;;;;0.63;0.63;;;12.90;70.80;;;;;;5079881;28;20437;-53
2021/12/29 05:28:12;;;;;;;2.50;0.50;;;13.10;70.30;;;;;;5087062;28;20433;-52
2021/12/29 05:30:38;;;;;;;1.70;0.70;;;13.30;69.40;;;;;;5084433;28;20824;-52
2021/12/29 05:33:05;;;;;;;1.10;0.50;;;13.30;69.10;;;;;;5085208;28;20199;-53
2021/12/29 05:35:32;;;;;;;7.17;6.43;;;13.00;69.00;;;;;;5077038;28;20646;-53
2021/12/29 05:37:58;;;;;;;1.37;0.80;;;12.60;70.90;;;;;;5082338;28;20805;-52
2021/12/29 05:40:24;;;;;;;0.50;0.50;;;12.50;72.30;;;;;;5077524;28;20434;-51
2021/12/29 05:42:50;;;;;;;0.83;0.57;;;12.50;73.20;;;;;;5084278;28;20433;-54
2021/12/29 05:45:16;;;;;;;0.63;0.53;;;12.30;73.30;;;;;;5089474;28;20433;-53
2021/12/29 05:47:43;;;;;;;0.50;0.50;;;12.40;73.90;;;;;;5086862;28;20255;-51
2021/12/29 05:50:11;;;;;;;0.70;0.70;;;12.40;73.70;;;;;;5084157;28;20440;-53
2021/12/29 05:52:37;;;;;;;1.93;0.60;;;12.50;73.30;;;;;;5090081;28;20506;-52
2021/12/29 05:55:04;;;;;;;2.00;0.67;;;12.60;73.20;;;;;;5078369;28;20458;-54
2021/12/29 05:57:30;;;;;;;0.67;0.67;;;12.90;72.50;;;;;;5084451;28;20307;-51
2021/12/29 05:59:56;;;;;;;2.67;0.90;;;13.10;71.80;;;;;;5084024;28;20426;-53
2021/12/29 06:02:22;;;;;;;0.70;0.60;;;13.20;71.30;;;;;;5081725;28;20810;-51
2021/12/29 06:04:47;;;;;;;1.27;0.90;;;13.40;70.80;;;;;;5082650;28;20210;-51
2021/12/29 06:07:13;;;;;;;5.30;0.73;;;13.50;70.30;;;;;;5082023;28;20198;-53
2021/12/29 06:09:40;;;;;;;1.27;0.80;;;13.60;70.00;;;;;;5079836;28;20321;-53
2021/12/29 06:12:06;;;;;;;1.80;1.00;;;13.70;69.80;;;;;;5083711;28;20218;-51
2021/12/29 06:14:31;;;;;;;4.33;0.70;;;13.70;69.50;;;;;;5089526;28;20433;-49
2021/12/29 06:16:57;;;;;;;2.83;0.90;;;13.70;69.50;;;;;;5083763;28;20444;-49
2021/12/29 06:19:23;;;;;;;3.00;1.07;;;13.90;69.60;;;;;;5082438;28;20235;-49
2021/12/29 06:21:48;;;;;;;9.40;1.40;;;14.10;69.60;;;;;;5085195;28;20272;-49
2021/12/29 06:24:14;;;;;;;2.40;0.80;;;14.20;69.00;;;;;;5087273;28;20237;-49
2021/12/29 06:26:39;;;;;;;5.53;1.00;;;14.40;68.40;;;;;;5083031;28;20190;-49
2021/12/29 06:29:05;;;;;;;2.30;1.00;;;14.50;68.20;;;;;;5084853;28;20214;-49
2021/12/29 06:31:32;;;;;;;2.50;0.80;;;14.60;67.70;;;;;;5077581;28;20219;-49
2021/12/29 06:33:59;;;;;;;1.43;0.60;;;14.80;67.20;;;;;;5079237;28;20187;-49
2021/12/29 06:36:24;;;;;;;1.47;1.03;;;14.90;66.50;;;;;;5085617;28;20460;-53
2021/12/29 06:38:50;;;;;;;1.83;1.03;;;15.00;65.80;;;;;;5090102;28;20924;-52
2021/12/29 06:41:16;;;;;;;8.10;1.30;;;15.10;65.20;;;;;;5088098;28;20199;-50
2021/12/29 06:43:42;;;;;;;1.37;1.10;;;15.20;65.10;;;;;;5090128;28;20195;-49
2021/12/29 06:46:07;;;;;;;1.87;1.63;;;15.20;64.40;;;;;;5086717;28;20643;-52
2021/12/29 06:48:33;;;;;;;3.57;1.60;;;15.30;64.00;;;;;;5086400;28;20430;-51
2021/12/29 06:50:59;;;;;;;3.97;3.07;;;15.20;63.40;;;;;;5078811;28;20219;-52
2021/12/29 06:53:27;;;;;;;4.53;3.03;;;15.20;63.80;;;;;;5086569;28;20579;-51
2021/12/29 06:55:52;;;;;;;4.47;2.50;;;15.20;64.00;;;;;;5078874;28;20207;-52
2021/12/29 06:58:18;;;;;;;3.80;1.77;;;15.30;64.20;;;;;;5079180;28;20429;-50
2021/12/29 07:00:43;;;;;;;1.50;1.40;;;15.30;63.80;;;;;;5083329;28;20211;-51
2021/12/29 07:03:09;;;;;;;1.70;1.60;;;15.40;63.50;;;;;;5085334;28;20267;-52
2021/12/29 07:05:35;;;;;;;2.00;1.20;;;15.30;62.90;;;;;;5084368;28;20191;-49
2021/12/29 07:08:00;;;;;;;2.40;1.80;;;15.30;62.60;;;;;;5088433;28;20183;-51
2021/12/29 07:10:26;;;;;;;1.57;1.40;;;15.20;62.50;;;;;;5086293;28;20254;-53
2021/12/29 07:12:51;;;;;;;1.50;1.40;;;15.20;62.90;;;;;;5084056;28;20197;-52
2021/12/29 07:15:17;;;;;;;3.03;2.70;;;15.20;63.30;;;;;;5084975;28;20192;-53
2021/12/29 07:17:43;;;;;;;3.80;3.50;;;15.30;63.40;;;;;;5087233;28;20192;-54
2021/12/29 07:20:10;;;;;;;3.10;2.80;;;15.30;63.40;;;;;;5084675;28;20596;-52
2021/12/29 07:22:35;;;;;;;4.30;1.50;;;15.40;63.70;;;;;;5074777;28;20418;-52
2021/12/29 07:25:01;;;;;;;2.43;1.80;;;15.40;63.10;;;;;;5081906;28;20440;-53
2021/12/29 07:27:27;;;;;;;1.30;1.17;;;15.50;62.50;;;;;;5088085;28;20218;-52
2021/12/29 07:29:52;;;;;;;3.27;1.60;;;15.40;62.10;;;;;;5081548;28;20530;-53
2021/12/29 07:32:18;;;;;;;2.53;1.23;;;15.40;62.10;;;;;;5085501;28;20327;-50
2021/12/29 07:34:44;;;;;;;3.60;1.07;;;15.30;62.10;;;;;;5085542;28;20202;-53
2021/12/29 07:37:12;;;;;;;2.40;1.33;;;15.30;62.30;;;;;;5086787;28;20449;-50
2021/12/29 07:39:37;;;;;;;1.17;1.00;;;15.30;62.30;;;;;;5088493;28;20429;-49
2021/12/29 07:42:03;;;;;;;1.93;1.03;;;15.20;62.20;;;;;;5087816;28;20426;-53
2021/12/29 07:44:30;;;;;;;2.90;1.07;;;15.30;62.30;;;;;;5086803;28;20191;-53
2021/12/29 07:46:58;;;;;;;3.13;1.20;;;15.20;62.20;;;;;;5078626;28;20438;-51
2021/12/29 07:49:25;;;;;;;7.70;1.40;;;15.00;62.60;;;;;;5090156;28;20437;-53
2021/12/29 07:51:52;;;;;;;4.00;1.30;;;15.10;63.30;;;;;;5081315;28;20487;-53
2021/12/29 07:54:18;;;;;;;4.87;1.53;;;14.90;63.20;;;;;;5085881;28;20948;-50
2021/12/29 07:56:44;;;;;;;3.20;1.53;;;14.90;63.20;;;;;;5084947;28;20438;-53
2021/12/29 07:59:11;;;;;;;1.77;1.50;;;14.90;63.20;;;;;;5081531;28;20503;-53
2021/12/29 08:01:38;;;;;;;2.30;1.23;;;14.80;63.30;;;;;;5086764;28;20449;-51
2021/12/29 08:04:04;;;;;;;3.93;1.20;;;14.70;63.90;;;;;;5089183;28;20905;-53
2021/12/29 08:06:30;;;;;;;2.33;1.00;;;14.40;64.70;;;;;;5081787;28;20430;-50
2021/12/29 08:08:55;;;;;;;2.10;1.13;;;14.20;65.40;;;;;;5079959;28;20188;-53
2021/12/29 08:11:21;;;;;;;3.60;2.30;;;14.30;65.60;;;;;;5088367;28;20219;-53
2021/12/29 08:13:48;;;;;;;4.80;1.70;;;14.40;65.10;;;;;;5083331;28;20203;-54
2021/12/29 08:16:14;;;;;;;2.53;1.27;;;14.50;65.00;;;;;;5078749;28;20238;-49
2021/12/29 08:18:40;;;;;;;2.00;1.67;;;14.50;64.80;;;;;;5078990;28;20465;-52
2021/12/29 08:21:06;;;;;;;4.63;2.07;;;14.60;64.80;;;;;;5085106;28;20190;-53
2021/12/29 08:23:32;;;;;;;5.07;4.13;;;14.60;64.80;;;;;;5085979;28;20437;-49
2021/12/29 08:25:58;;;;;;;3.97;2.90;;;14.60;64.60;;;;;;5092469;28;20279;-49
2021/12/29 08:28:24;;;;;;;3.03;1.70;;;14.70;64.90;;;;;;5091501;28;20179;-49
2021/12/29 08:30:54;;;;;;;4.47;1.70;;;14.70;64.80;;;;;;5082855;28;20472;-52
2021/12/29 08:33:20;;;;;;;4.03;1.80;;;14.70;64.70;;;;;;5088948;28;20569;-49
2021/12/29 08:35:45;;;;;;;4.23;1.70;;;14.80;64.50;;;;;;5091203;28;20586;-50
2021/12/29 08:38:11;;;;;;;5.80;1.80;;;14.90;64.30;;;;;;5079786;28;20202;-54
2021/12/29 08:40:37;;;;;;;4.77;2.20;;;15.00;64.10;;;;;;5078005;28;20608;-53
2021/12/29 08:43:03;;;;;;;4.90;2.13;;;15.10;64.20;;;;;;5091642;28;20195;-53
2021/12/29 08:45:30;;;;;;;3.23;1.33;;;15.10;64.40;;;;;;5091923;28;20196;-52
2021/12/29 08:47:58;;;;;;;1.93;1.30;;;15.10;64.00;;;;;;5087028;28;20443;-54
2021/12/29 08:50:26;;;;;;;3.93;1.60;;;15.30;64.10;;;;;;5089621;28;20441;-53
2021/12/29 08:52:52;;;;;;;3.33;1.60;;;15.50;65.30;;;;;;5085616;28;20472;-50
2021/12/29 08:55:18;;;;;;;2.20;1.40;;;15.70;64.60;;;;;;5087121;28;20425;-52
2021/12/29 08:57:44;;;;;;;4.05;1.67;;;15.90;63.90;;;;;;5089131;28;20428;-50
2021/12/29 09:00:14;;;;;;;2.60;1.77;;;16.10;63.20;;;;;;5085044;28;20244;-54
2021/12/29 09:02:41;;;;;;;5.33;1.60;;;16.30;62.90;;;;;;5076218;28;20192;-49
2021/12/29 09:05:08;;;;;;;2.00;1.43;;;16.50;63.10;;;;;;5087833;28;20551;-53
2021/12/29 09:07:33;;;;;;;2.50;1.20;;;16.80;61.60;;;;;;5083523;28;20445;-50
2021/12/29 09:10:00;;;;;;;4.37;1.50;;;17.00;59.70;;;;;;5080132;28;20460;-50
2021/12/29 09:12:26;;;;;;;1.33;0.80;;;17.00;59.20;;;;;;5090655;28;20602;-50
2021/12/29 09:14:52;;;;;;;1.50;1.00;;;16.90;59.00;;;;;;5081622;28;20849;-50
2021/12/29 09:17:18;;;;;;;1.87;0.90;;;16.90;58.80;;;;;;5089625;28;20536;-54
2021/12/29 09:19:44;;;;;;;3.00;1.13;;;16.80;58.70;;;;;;5087451;28;20231;-51
2021/12/29 09:22:12;;;;;;;3.23;1.03;;;16.80;58.90;;;;;;5090431;28;20206;-50
2021/12/29 09:24:39;;;;;;;1.20;1.10;;;16.70;58.70;;;;;;5090764;28;20562;-49
2021/12/29 09:27:05;;;;;;;2.67;0.90;;;16.70;58.70;;;;;;5095551;28;20505;-52
2021/12/29 09:29:33;;;;;;;1.50;1.20;;;16.60;58.70;;;;;;5091911;28;20806;-52
2021/12/29 09:32:00;;;;;;;2.90;2.10;;;16.50;58.80;;;;;;5087168;28;20487;-53
2021/12/29 09:34:26;;;;;;;2.50;1.20;;;16.30;58.50;;;;;;5086585;28;20480;-49
2021/12/29 09:36:52;;;;;;;3.37;1.90;;;16.20;58.60;;;;;;5091923;28;20445;-52
2021/12/29 09:39:18;;;;;;;1.23;0.70;;;16.10;58.20;;;;;;5086357;28;20234;-51
2021/12/29 09:41:43;;;;;;;2.00;1.07;;;15.70;58.50;;;;;;5089081;28;20201;-50
2021/12/29 09:44:10;;;;;;;2.40;1.10;;;15.40;58.80;;;;;;5088436;28;20288;-53
2021/12/29 09:46:37;;;;;;;2.63;1.27;;;15.50;59.10;;;;;;5088403;28;20274;-51
2021/12/29 09:49:03;;;;;;;1.50;1.33;;;15.60;59.20;;;;;;5087902;28;20479;-51
2021/12/29 09:51:28;;;;;;;2.40;1.10;;;15.60;59.20;;;;;;5084758;28;20972;-50
2021/12/29 09:53:54;;;;;;;2.40;1.10;;;15.60;59.20;;;;;;5080822;28;20443;-51
2021/12/29 09:56:20;;;;;;;4.10;1.80;;;15.40;59.20;;;;;;5082300;28;20550;-50
2021/12/29 09:58:45;;;;;;;3.00;1.50;;;15.20;59.40;;;;;;5088949;28;20207;-51
2021/12/29 10:01:12;;;;;;;1.30;1.07;;;15.20;59.70;;;;;;5088695;28;20575;-49
2021/12/29 10:03:38;;;;;;;1.30;1.20;;;15.20;60.00;;;;;;5085104;28;20191;-49
2021/12/29 10:06:07;;;;;;;5.30;1.30;;;15.20;60.10;;;;;;5081278;28;20438;-50
2021/12/29 10:08:37;;;;;;;2.07;1.17;;;15.30;60.30;;;;;;5080701;28;20540;-49
2021/12/29 10:11:18;;;;;;;1.47;1.10;;;15.30;60.40;;;;;;5075416;28;20504;-52
2021/12/29 10:13:48;;;;;;;1.63;0.97;;;15.30;60.40;;;;;;5085093;28;20433;-52
2021/12/29 10:16:28;;;;;;;4.73;1.30;;;15.30;60.10;;;;;;5081965;28;20437;-54
2021/12/29 10:19:04;;;;;;;4.30;1.30;;;15.40;60.00;;;;;;5091557;28;20476;-51
2021/12/29 10:21:31;;;;;;;7.30;1.83;;;15.40;60.30;;;;;;5088321;28;20432;-50
2021/12/29 10:23:59;;;;;;;4.97;1.57;;;15.40;60.40;;;;;;5087922;28;20434;-54
2021/12/29 10:26:27;;;;;;;1.63;1.50;;;15.50;60.70;;;;;;5083186;28;20438;-50
2021/12/29 10:28:56;;;;;;;6.47;1.77;;;15.30;61.40;;;;;;5089433;28;20436;-49
2021/12/29 10:31:29;;;;;;;4.23;2.20;;;15.40;61.10;;;;;;5086744;28;20481;-48
2021/12/29 10:34:04;;;;;;;5.10;1.60;;;15.40;61.70;;;;;;5084617;28;20444;-50
2021/12/29 10:36:54;;;;;;;3.03;1.93;;;15.40;61.60;;;;;;5086495;28;20436;-50
2021/12/29 10:39:23;;;;;;;4.17;1.60;;;15.30;61.50;;;;;;5083700;28;20437;-49
2021/12/29 10:41:56;;;;;;;4.10;1.80;;;15.30;61.70;;;;;;5097109;28;20421;-49
2021/12/29 10:44:27;;;;;;;2.30;1.87;;;15.40;61.70;;;;;;5081813;28;20433;-49
2021/12/29 10:46:56;;;;;;;3.00;1.73;;;15.40;61.70;;;;;;5088602;28;20484;-49
2021/12/29 10:49:24;;;;;;;2.73;1.60;;;15.40;62.00;;;;;;5091079;28;20443;-49
2021/12/29 10:51:49;;;;;;;1.93;1.40;;;15.20;62.30;;;;;;5087643;28;20537;-49
2021/12/29 10:54:19;;;;;;;2.63;1.57;;;15.10;62.30;;;;;;5086702;28;21224;-50
2021/12/29 10:57:06;;;;;;;1.97;1.40;;;15.10;62.50;;;;;;5081552;28;20576;-49
2021/12/29 10:59:37;;;;;;;1.90;1.30;;;15.10;62.30;;;;;;5079371;28;20523;-49
2021/12/29 11:02:05;;;;;;;3.83;1.73;;;15.20;62.20;;;;;;5082631;28;21342;-49
2021/12/29 11:04:31;;;;;;;4.47;1.53;;;15.20;62.00;;;;;;5082893;28;20519;-49
2021/12/29 11:06:57;;;;;;;2.53;1.80;;;15.20;61.90;;;;;;5081571;28;20440;-49
2021/12/29 11:09:33;;;;;;;1.80;1.20;;;15.10;62.00;;;;;;5088779;28;21042;-51
2021/12/29 11:12:01;;;;;;;1.90;1.33;;;15.10;61.80;;;;;;5094492;28;20537;-51
2021/12/29 11:14:32;;;;;;;3.67;1.30;;;15.10;61.60;;;;;;5092534;28;20512;-51
2021/12/29 11:17:06;;;;;;;2.07;1.13;;;15.10;61.30;;;;;;5087025;28;20447;-50
2021/12/29 11:19:33;;;;;;;2.47;1.77;;;15.10;61.30;;;;;;5086358;28;20468;-52
2021/12/29 11:22:17;;;;;;;4.20;1.37;;;15.10;61.50;;;;;;5084255;28;20433;-51
2021/12/29 11:24:44;;;;;;;1.97;1.50;;;15.00;61.90;;;;;;5082469;28;20444;-52
2021/12/29 11:27:14;;;;;;;2.30;1.20;;;15.10;62.00;;;;;;5086051;28;20503;-54
2021/12/29 11:29:53;;;;;;;3.30;1.77;;;15.00;61.70;;;;;;5087381;28;20992;-51
2021/12/29 11:32:28;;;;;;;1.27;1.07;;;15.00;61.20;;;;;;5079969;28;20477;-50
2021/12/29 11:35:08;;;;;;;2.30;1.27;;;15.00;61.20;;;;;;5082317;28;20458;-52
2021/12/29 11:37:37;;;;;;;4.33;1.57;;;15.10;61.70;;;;;;5084329;28;20437;-50
2021/12/29 11:40:05;;;;;;;3.33;1.33;;;15.00;61.20;;;;;;5079262;28;20908;-53
2021/12/29 11:42:30;;;;;;;4.00;1.37;;;14.90;60.70;;;;;;5076559;28;20451;-52
2021/12/29 11:44:56;;;;;;;1.63;1.00;;;14.90;61.10;;;;;;5087700;28;20441;-53
2021/12/29 11:47:21;;;;;;;2.90;1.10;;;14.80;60.80;;;;;;5081156;28;20188;-52
2021/12/29 11:49:47;;;;;;;6.23;1.30;;;14.70;61.20;;;;;;5092030;28;20191;-49
2021/12/29 11:52:24;;;;;;;1.53;0.93;;;14.70;61.40;;;;;;5083995;28;20231;-50
2021/12/29 11:55:15;;;;;;;2.57;0.90;;;14.40;61.20;;;;;;5088448;28;20616;-49
2021/12/29 11:57:42;;;;;;;2.20;1.17;;;14.30;62.10;;;;;;5087690;28;20445;-50
2021/12/29 12:00:18;;;;;;;1.23;1.00;;;14.50;62.30;;;;;;5079150;28;20789;-52
2021/12/29 12:02:49;;;;;;;2.50;1.17;;;14.70;62.10;;;;;;5076874;28;20433;-50
2021/12/29 12:05:18;;;;;;;2.40;1.23;;;14.50;61.90;;;;;;5085168;28;20567;-51
2021/12/29 12:07:44;;;;;;;3.67;1.33;;;14.50;63.50;;;;;;5085580;28;20437;-52
2021/12/29 12:10:24;;;;;;;1.47;0.90;;;14.60;62.60;;;;;;5078966;28;20457;-50
2021/12/29 12:12:53;;;;;;;3.90;1.60;;;14.60;62.70;;;;;;5081693;28;20968;-51
2021/12/29 12:15:33;;;;;;;1.63;1.10;;;14.50;62.60;;;;;;5086030;28;20516;-50
2021/12/29 12:18:06;;;;;;;3.43;1.10;;;14.40;62.90;;;;;;5088413;28;20436;-50
2021/12/29 12:20:42;;;;;;;1.83;0.90;;;14.60;62.70;;;;;;5083591;28;21987;-49
2021/12/29 12:23:09;;;;;;;2.40;1.40;;;14.40;62.40;;;;;;5088414;28;20805;-51
2021/12/29 12:25:35;;;;;;;3.43;0.97;;;14.30;62.50;;;;;;5088913;28;20464;-49
2021/12/29 12:28:02;;;;;;;4.23;1.43;;;14.30;62.90;;;;;;5085207;28;20932;-50
2021/12/29 12:30:44;;;;;;;2.70;1.13;;;14.30;63.70;;;;;;5077675;28;20421;-50
2021/12/29 12:33:17;;;;;;;2.73;1.60;;;14.50;62.70;;;;;;5079658;28;20441;-50
2021/12/29 12:35:46;;;;;;;2.03;1.33;;;14.70;62.40;;;;;;5086244;28;20469;-51
2021/12/29 12:38:27;;;;;;;1.47;1.03;;;14.70;62.20;;;;;;5085121;28;20545;-50
2021/12/29 12:41:12;;;;;;;2.20;1.03;;;14.70;62.30;;;;;;5082085;28;20434;-50
2021/12/29 12:43:54;;;;;;;3.27;1.10;;;14.90;61.70;;;;;;5073315;28;20460;-50
2021/12/29 12:46:31;;;;;;;3.20;1.67;;;14.90;61.60;;;;;;5080651;28;20430;-49
2021/12/29 12:48:58;;;;;;;3.73;1.40;;;15.00;61.70;;;;;;5083482;28;20801;-49
2021/12/29 12:51:23;;;;;;;3.93;1.60;;;15.00;61.30;;;;;;5079808;28;20830;-50
2021/12/29 12:53:50;;;;;;;5.13;1.03;;;15.10;61.30;;;;;;5085730;28;20432;-49